Thousand Island Park, New York
Current Conditions -  °F | °C
As of 12:56 AM on Saturday 25 Oct 2014 (Local Time) from KART Reporting Station
Clear Clear  
Wind Chill: 44°   Ceiling: Unl
Heat Index: 47°   Visibility: 10mi
Dew Point: 41°   Wind: 6mph
Humidity: 80%   Direction: 200°SSW
Pressure: 29.86"   Gusts: NA
Location:  44.29°N, 76.03°W
Report Text: KART 250456Z AUTO 20005KT 10SM CLR 08/05 A2986 RMK AO2 SLP110 T00830050 401560067
Loading
Personal Weather Stations






























Interactive Weather Map New forecast layout! Learn more

10-Day Weather Forecast

Advertisements
Track Severe Weather on mobile